createdAt,value
2022-08-19T00:00:43.179Z,1004.77
2022-08-19T00:01:43.566Z,1004.74
2022-08-19T00:02:50.392Z,1004.68
2022-08-19T00:03:45.140Z,1004.72
2022-08-19T00:04:44.456Z,1004.71
2022-08-19T00:05:44.676Z,1004.70
2022-08-19T00:06:45.060Z,1004.69
2022-08-19T00:07:45.300Z,1004.69
2022-08-19T00:08:45.519Z,1004.67
2022-08-19T00:09:45.906Z,1004.60
2022-08-19T00:10:46.150Z,1004.68
2022-08-19T00:11:46.418Z,1004.68
2022-08-19T00:12:47.010Z,1004.63
2022-08-19T00:13:46.992Z,1004.62
2022-08-19T00:14:47.237Z,1004.58
2022-08-19T00:15:47.570Z,1004.63
2022-08-19T00:16:47.796Z,1004.64
2022-08-19T00:17:48.003Z,1004.58
2022-08-19T00:18:48.355Z,1004.62
2022-08-19T00:19:48.567Z,1004.59
2022-08-19T00:20:48.935Z,1004.62
2022-08-19T00:21:49.167Z,1004.57
2022-08-19T00:22:49.395Z,1004.56
2022-08-19T00:23:49.748Z,1004.51
2022-08-19T00:24:50.975Z,1004.55
2022-08-19T00:25:50.246Z,1004.55
2022-08-19T00:26:50.607Z,1004.55
2022-08-19T00:27:50.827Z,1004.57
2022-08-19T00:28:51.169Z,1004.52
2022-08-19T00:29:52.403Z,1004.54
2022-08-19T00:30:51.779Z,1004.52
2022-08-19T00:31:52.027Z,1004.57
2022-08-19T00:32:52.380Z,1004.53
2022-08-19T00:33:52.608Z,1004.56
2022-08-19T00:34:52.824Z,1004.56
2022-08-19T00:35:56.112Z,1004.57
2022-08-19T00:36:53.500Z,1004.48
2022-08-19T00:37:53.732Z,1004.52
2022-08-19T00:38:54.082Z,1004.50
2022-08-19T00:39:54.390Z,1004.57
2022-08-19T00:40:54.586Z,1004.57
2022-08-19T00:41:54.943Z,1004.56
2022-08-19T00:42:55.199Z,1004.56
2022-08-19T00:43:55.393Z,1004.56
2022-08-19T00:44:55.745Z,1004.60
2022-08-19T00:45:56.079Z,1004.64
2022-08-19T00:46:58.431Z,1004.66
2022-08-19T00:47:56.720Z,1004.62
2022-08-19T00:48:57.071Z,1004.63
2022-08-19T00:49:57.411Z,1004.63
2022-08-19T00:50:57.758Z,1004.58
2022-08-19T00:51:58.089Z,1004.60
2022-08-19T00:52:58.439Z,1004.59
2022-08-19T00:53:58.778Z,1004.61
2022-08-19T00:54:59.121Z,1004.65
2022-08-19T00:55:59.477Z,1004.61
2022-08-19T00:56:59.704Z,1004.72
2022-08-19T00:58:00.039Z,1004.67
2022-08-19T00:59:00.380Z,1004.66
2022-08-19T01:00:03.058Z,1004.77
2022-08-19T01:01:01.004Z,1004.70
2022-08-19T01:02:01.351Z,1004.70
2022-08-19T01:03:01.755Z,1004.77
2022-08-19T01:04:01.945Z,1004.74
2022-08-19T01:05:02.307Z,1004.71
2022-08-19T01:06:02.536Z,1004.74
2022-08-19T01:07:02.786Z,1004.74
2022-08-19T01:08:03.035Z,1004.73
2022-08-19T01:09:03.326Z,1004.74
2022-08-19T01:10:03.547Z,1004.77
2022-08-19T01:11:03.955Z,1004.73
2022-08-19T01:12:04.204Z,1004.71
2022-08-19T01:13:04.431Z,1004.69
2022-08-19T01:14:04.757Z,1004.67
2022-08-19T01:15:05.093Z,1004.67
2022-08-19T01:16:05.459Z,1004.65
2022-08-19T01:17:05.698Z,1004.59
2022-08-19T01:18:05.904Z,1004.50
2022-08-19T01:19:06.253Z,1004.52
2022-08-19T01:20:06.491Z,1004.51
2022-08-19T01:21:06.720Z,1004.46
2022-08-19T01:22:14.441Z,1004.49
2022-08-19T01:23:08.360Z,1004.44
2022-08-19T01:24:07.633Z,1004.40
2022-08-19T01:25:09.507Z,1004.43
2022-08-19T01:26:09.314Z,1004.36
2022-08-19T01:27:08.613Z,1004.38
2022-08-19T01:28:11.101Z,1004.40
2022-08-19T01:29:09.136Z,1004.36
2022-08-19T01:30:09.379Z,1004.39
2022-08-19T01:31:09.737Z,1004.44
2022-08-19T01:32:09.947Z,1004.39
2022-08-19T01:33:11.285Z,1004.30
2022-08-19T01:34:10.558Z,1004.33
2022-08-19T01:35:10.948Z,1004.32
2022-08-19T01:36:11.219Z,1004.25
2022-08-19T01:37:11.457Z,1004.31
2022-08-19T01:38:11.682Z,1004.32
2022-08-19T01:39:12.033Z,1004.27
2022-08-19T01:40:12.284Z,1004.26
2022-08-19T01:41:12.526Z,1004.25
2022-08-19T01:42:12.738Z,1004.21
2022-08-19T01:43:13.102Z,1004.17
2022-08-19T01:44:18.551Z,1004.23
2022-08-19T01:45:14.680Z,1004.21
2022-08-19T01:46:13.954Z,1004.25
2022-08-19T01:47:14.181Z,1004.27
2022-08-19T01:48:14.533Z,1004.26
2022-08-19T01:49:14.745Z,1004.28
2022-08-19T01:50:15.087Z,1004.33
2022-08-19T01:51:15.444Z,1004.34
2022-08-19T01:52:15.672Z,1004.34
2022-08-19T01:53:15.998Z,1004.34
2022-08-19T01:54:23.215Z,1004.34
2022-08-19T01:55:17.674Z,1004.33
2022-08-19T01:56:16.957Z,1004.35
2022-08-19T01:57:17.197Z,1004.37
2022-08-19T01:58:17.433Z,1004.37
2022-08-19T01:59:17.649Z,1004.39
2022-08-19T02:00:17.979Z,1004.39
2022-08-19T02:01:18.391Z,1004.45
2022-08-19T02:02:18.621Z,1004.42
2022-08-19T02:03:18.885Z,1004.47
2022-08-19T02:04:19.142Z,1004.51
2022-08-19T02:05:19.454Z,1004.55
2022-08-19T02:06:19.691Z,1004.58
2022-08-19T02:07:21.016Z,1004.62
2022-08-19T02:08:20.302Z,1004.51
2022-08-19T02:09:20.535Z,1004.59
2022-08-19T02:10:20.766Z,1004.55
2022-08-19T02:11:21.007Z,1004.60
2022-08-19T02:12:21.213Z,1004.72
2022-08-19T02:13:21.556Z,1004.80
2022-08-19T02:14:22.887Z,1004.89
2022-08-19T02:15:22.155Z,1004.96
2022-08-19T02:16:22.486Z,1004.94
2022-08-19T02:17:22.826Z,1004.92
2022-08-19T02:18:23.174Z,1004.87
2022-08-19T02:19:24.488Z,1004.92
2022-08-19T02:20:23.778Z,1004.96
2022-08-19T02:21:24.007Z,1005.02
2022-08-19T02:22:24.238Z,1005.09
2022-08-19T02:23:24.462Z,1005.11
2022-08-19T02:24:24.788Z,1004.99
2022-08-19T02:25:25.148Z,1004.87
2022-08-19T02:26:25.369Z,1004.78
2022-08-19T02:27:25.602Z,1004.81
2022-08-19T02:28:25.820Z,1004.76
2022-08-19T02:29:26.181Z,1004.80
2022-08-19T02:30:26.413Z,1004.68
2022-08-19T02:31:26.668Z,1004.65
2022-08-19T02:32:26.916Z,1004.55
2022-08-19T02:33:27.152Z,1004.62
2022-08-19T02:34:27.362Z,1004.70
2022-08-19T02:35:27.763Z,1004.57
2022-08-19T02:36:27.987Z,1004.53
2022-08-19T02:37:28.324Z,1004.49
2022-08-19T02:38:28.681Z,1004.48
2022-08-19T02:39:29.013Z,1004.52
2022-08-19T02:40:29.255Z,1004.49
2022-08-19T02:41:29.465Z,1004.39
2022-08-19T02:42:29.826Z,1004.39
2022-08-19T02:43:33.838Z,1004.42
2022-08-19T02:44:31.933Z,1004.41
2022-08-19T02:45:30.636Z,1004.51
2022-08-19T02:46:30.839Z,1004.49
2022-08-19T02:47:31.202Z,1004.44
2022-08-19T02:48:31.411Z,1004.46
2022-08-19T02:49:34.587Z,1004.53
2022-08-19T02:50:32.069Z,1004.52
2022-08-19T02:51:32.415Z,1004.48
2022-08-19T02:52:32.759Z,1004.50
2022-08-19T02:53:32.970Z,1004.52
2022-08-19T02:54:33.332Z,1004.56
2022-08-19T02:55:33.552Z,1004.60
2022-08-19T02:56:34.922Z,1004.79
2022-08-19T02:57:34.170Z,1004.84
2022-08-19T02:58:34.522Z,1004.87
2022-08-19T02:59:34.724Z,1004.82
2022-08-19T03:00:35.064Z,1004.78
2022-08-19T03:01:36.431Z,1004.58
2022-08-19T03:02:35.723Z,1004.44
2022-08-19T03:03:35.967Z,1004.28
2022-08-19T03:04:36.186Z,1004.21
2022-08-19T03:05:48.248Z,1004.08
2022-08-19T03:06:37.867Z,1004.17
2022-08-19T03:07:37.157Z,1004.31
2022-08-19T03:08:44.976Z,1004.38
2022-08-19T03:09:37.777Z,1004.48
2022-08-19T03:10:38.106Z,1004.55
2022-08-19T03:11:38.370Z,1004.60
2022-08-19T03:12:38.689Z,1004.58
2022-08-19T03:13:38.998Z,1004.58
2022-08-19T03:14:39.321Z,1004.59
2022-08-19T03:15:39.654Z,1004.55
2022-08-19T03:16:39.960Z,1004.46
2022-08-19T03:17:40.269Z,1004.44
2022-08-19T03:18:40.603Z,1004.44
2022-08-19T03:19:40.908Z,1004.43
2022-08-19T03:20:41.245Z,1004.43
2022-08-19T03:21:41.561Z,1004.45
2022-08-19T03:22:41.871Z,1004.46
2022-08-19T03:23:42.190Z,1004.49
2022-08-19T03:24:42.532Z,1004.49
2022-08-19T03:25:42.844Z,1004.48
2022-08-19T03:26:43.163Z,1004.52
2022-08-19T03:27:43.473Z,1004.55
2022-08-19T03:28:47.711Z,1004.59
2022-08-19T03:29:45.106Z,1004.67
2022-08-19T03:30:44.347Z,1004.71
2022-08-19T03:31:51.282Z,1004.71
2022-08-19T03:32:46.027Z,1004.76
2022-08-19T03:33:46.274Z,1004.77
2022-08-19T03:34:45.552Z,1004.75
2022-08-19T03:35:45.847Z,1004.75
2022-08-19T03:36:46.158Z,1004.74
2022-08-19T03:37:46.468Z,1004.75
2022-08-19T03:38:46.813Z,1004.72
2022-08-19T03:39:47.152Z,1004.78
2022-08-19T03:40:47.470Z,1004.77
2022-08-19T03:41:48.554Z,1004.78
2022-08-19T03:42:49.449Z,1004.79
2022-08-19T03:43:48.400Z,1004.77
2022-08-19T03:44:48.740Z,1004.76
2022-08-19T03:45:49.070Z,1004.85
2022-08-19T03:46:49.400Z,1004.81
2022-08-19T03:47:49.734Z,1004.86
2022-08-19T03:48:50.054Z,1004.86
2022-08-19T03:49:50.392Z,1004.83
2022-08-19T03:50:50.742Z,1004.86
2022-08-19T03:51:51.061Z,1004.81
2022-08-19T03:52:51.555Z,1004.78
2022-08-19T03:53:51.694Z,1004.73
2022-08-19T03:54:52.037Z,1004.66
2022-08-19T03:55:52.360Z,1004.63
2022-08-19T03:56:52.708Z,1004.61
2022-08-19T03:57:57.361Z,1004.57
2022-08-19T03:58:54.325Z,1004.56
2022-08-19T03:59:53.641Z,1004.65
2022-08-19T04:00:53.895Z,1004.65
2022-08-19T04:01:54.128Z,1004.63
2022-08-19T04:03:00.326Z,1004.67
2022-08-19T04:03:55.659Z,1004.67
2022-08-19T04:04:54.890Z,1004.69
2022-08-19T04:05:55.121Z,1004.70
2022-08-19T04:06:55.366Z,1004.77
2022-08-19T04:07:55.685Z,1004.77
2022-08-19T04:08:56.034Z,1004.76
2022-08-19T04:09:56.374Z,1004.82
2022-08-19T04:10:56.711Z,1004.82
2022-08-19T04:11:57.070Z,1004.82
2022-08-19T04:12:57.414Z,1004.88
2022-08-19T04:13:57.763Z,1004.91
2022-08-19T04:14:58.019Z,1004.93
2022-08-19T04:15:58.204Z,1004.92
2022-08-19T04:16:58.556Z,1004.87
2022-08-19T04:17:58.892Z,1004.88
2022-08-19T04:18:59.771Z,1004.94
2022-08-19T04:19:59.563Z,1004.90
2022-08-19T04:20:59.867Z,1004.90
2022-08-19T04:22:00.091Z,1004.94
2022-08-19T04:23:00.435Z,1004.89
2022-08-19T04:24:00.774Z,1004.90
2022-08-19T04:25:01.138Z,1004.89
2022-08-19T04:26:01.358Z,1004.84
2022-08-19T04:27:01.659Z,1004.78
2022-08-19T04:28:01.999Z,1004.79
2022-08-19T04:29:02.340Z,1004.87
2022-08-19T04:30:02.698Z,1004.85
2022-08-19T04:31:02.943Z,1004.84
2022-08-19T04:32:09.312Z,1004.89
2022-08-19T04:33:04.501Z,1004.98
2022-08-19T04:34:03.772Z,1005.02
2022-08-19T04:35:16.787Z,1004.99
2022-08-19T04:36:05.290Z,1005.03
2022-08-19T04:37:04.587Z,1005.01
2022-08-19T04:38:04.844Z,1005.01
2022-08-19T04:39:05.173Z,1005.00
2022-08-19T04:40:05.631Z,1005.04
2022-08-19T04:41:05.774Z,1005.02
2022-08-19T04:42:06.006Z,1005.04
2022-08-19T04:43:06.263Z,1005.09
2022-08-19T04:44:06.485Z,1005.04
2022-08-19T04:45:09.220Z,1005.07
2022-08-19T04:46:07.052Z,1005.10
2022-08-19T04:47:10.884Z,1005.13
2022-08-19T04:48:26.719Z,1005.12
2022-08-19T04:49:13.181Z,1005.12
2022-08-19T04:50:08.163Z,1005.08
2022-08-19T04:51:08.479Z,1005.09
2022-08-19T04:52:08.689Z,1005.13
2022-08-19T04:53:09.039Z,1005.11
2022-08-19T04:54:09.279Z,1005.07
2022-08-19T04:55:09.511Z,1005.12
2022-08-19T04:56:09.839Z,1005.09
2022-08-19T04:57:10.087Z,1005.09
2022-08-19T04:58:10.433Z,1004.98
2022-08-19T04:59:10.679Z,1004.96
2022-08-19T05:00:10.901Z,1005.02
2022-08-19T05:01:11.284Z,1004.98
2022-08-19T05:02:11.544Z,1004.92
2022-08-19T05:03:11.874Z,1004.94
2022-08-19T05:04:12.243Z,1004.86
2022-08-19T05:05:12.463Z,1004.84
2022-08-19T05:06:12.804Z,1004.85
2022-08-19T05:07:13.154Z,1004.80
2022-08-19T05:08:13.498Z,1004.76
2022-08-19T05:09:13.775Z,1004.82
2022-08-19T05:10:13.996Z,1004.73
2022-08-19T05:11:14.347Z,1004.76
2022-08-19T05:12:14.682Z,1004.72
2022-08-19T05:13:15.028Z,1004.69
2022-08-19T05:14:15.384Z,1004.69
2022-08-19T05:15:15.592Z,1004.69
2022-08-19T05:16:15.952Z,1004.75
2022-08-19T05:17:37.550Z,1004.73
2022-08-19T05:18:17.479Z,1004.67
2022-08-19T05:19:16.799Z,1004.68
2022-08-19T05:20:17.009Z,1004.68
2022-08-19T05:21:17.379Z,1004.68
2022-08-19T05:22:17.621Z,1004.74
2022-08-19T05:23:22.122Z,1004.70
2022-08-19T05:24:18.092Z,1004.72
2022-08-19T05:25:18.314Z,1004.67
2022-08-19T05:26:18.662Z,1004.64
2022-08-19T05:27:19.010Z,1004.66
2022-08-19T05:28:19.360Z,1004.62
2022-08-19T05:29:19.603Z,1004.66
2022-08-19T05:30:20.378Z,1004.70
2022-08-19T05:31:21.185Z,1004.64
2022-08-19T05:32:20.459Z,1004.76
2022-08-19T05:33:20.802Z,1004.78
2022-08-19T05:34:21.156Z,1004.83
2022-08-19T05:35:21.397Z,1004.82
2022-08-19T05:36:21.617Z,1004.83
2022-08-19T05:37:21.967Z,1004.80
2022-08-19T05:38:22.206Z,1004.82
2022-08-19T05:39:22.581Z,1004.88
2022-08-19T05:40:22.840Z,1004.80
2022-08-19T05:41:23.097Z,1004.80
2022-08-19T05:42:23.329Z,1004.80
2022-08-19T05:43:23.579Z,1004.71
2022-08-19T05:44:23.810Z,1004.69
2022-08-19T05:45:24.048Z,1004.64
2022-08-19T05:46:27.955Z,1004.62
2022-08-19T05:47:24.581Z,1004.62
2022-08-19T05:48:24.848Z,1004.56
2022-08-19T05:49:25.092Z,1004.54
2022-08-19T05:50:25.327Z,1004.51
2022-08-19T05:51:28.940Z,1004.48
2022-08-19T05:52:26.425Z,1004.27
2022-08-19T05:53:26.189Z,1004.26
2022-08-19T05:54:26.460Z,1004.21
2022-08-19T05:55:26.675Z,1004.20
2022-08-19T05:56:26.910Z,1004.22
2022-08-19T05:57:27.138Z,1004.26
2022-08-19T05:58:28.225Z,1004.29
2022-08-19T05:59:27.699Z,1004.24
2022-08-19T06:00:28.007Z,1004.24
2022-08-19T06:01:28.228Z,1004.22
2022-08-19T06:02:28.496Z,1004.15
2022-08-19T06:03:28.747Z,1004.20
2022-08-19T06:04:28.979Z,1004.20
2022-08-19T06:05:29.223Z,1004.22
2022-08-19T06:06:29.452Z,1004.25
2022-08-19T06:07:29.713Z,1004.29
2022-08-19T06:08:34.133Z,1004.34
2022-08-19T06:09:31.270Z,1004.26
2022-08-19T06:10:30.559Z,1004.21
2022-08-19T06:11:30.794Z,1004.20
2022-08-19T06:12:31.023Z,1004.24
2022-08-19T06:13:33.382Z,1004.21
2022-08-19T06:14:31.612Z,1004.21
2022-08-19T06:15:31.842Z,1004.30
2022-08-19T06:16:32.083Z,1004.29
2022-08-19T06:17:32.639Z,1004.26
2022-08-19T06:18:32.623Z,1004.32
2022-08-19T06:19:32.862Z,1004.32
2022-08-19T06:20:54.405Z,1004.29
2022-08-19T06:21:34.399Z,1004.37
2022-08-19T06:22:33.690Z,1004.33
2022-08-19T06:23:33.927Z,1004.41
2022-08-19T06:24:34.169Z,1004.37
2022-08-19T06:25:34.408Z,1004.32
2022-08-19T06:26:34.669Z,1004.35
2022-08-19T06:27:34.893Z,1004.44
2022-08-19T06:28:35.129Z,1004.47
2022-08-19T06:29:35.393Z,1004.47
2022-08-19T06:30:35.642Z,1004.49
2022-08-19T06:31:35.880Z,1004.56
2022-08-19T06:32:39.850Z,1004.50
2022-08-19T06:33:37.422Z,1004.53
2022-08-19T06:34:36.755Z,1004.53
2022-08-19T06:35:37.066Z,1004.50
2022-08-19T06:36:37.331Z,1004.47
2022-08-19T06:37:39.723Z,1004.43
2022-08-19T06:38:37.814Z,1004.47
2022-08-19T06:39:38.163Z,1004.46
2022-08-19T06:40:38.425Z,1004.48
2022-08-19T06:41:43.593Z,1004.43
2022-08-19T06:42:39.987Z,1004.42
2022-08-19T06:43:42.236Z,1004.39
2022-08-19T06:44:42.483Z,1004.40
2022-08-19T06:45:39.958Z,1004.45
2022-08-19T06:46:42.139Z,1004.37
2022-08-19T06:47:40.551Z,1004.40
2022-08-19T06:48:45.429Z,1004.36
2022-08-19T06:49:42.042Z,1004.30
2022-08-19T06:50:41.330Z,1004.32
2022-08-19T06:51:42.446Z,1004.28
2022-08-19T06:52:41.880Z,1004.27
2022-08-19T06:53:42.195Z,1004.26
2022-08-19T06:54:53.727Z,1004.27
2022-08-19T06:55:44.524Z,1004.31
2022-08-19T06:56:43.019Z,1004.25
2022-08-19T06:57:43.246Z,1004.20
2022-08-19T06:58:43.484Z,1004.23
2022-08-19T06:59:43.727Z,1004.17
2022-08-19T07:00:43.968Z,1004.22
2022-08-19T07:01:44.300Z,1004.41
2022-08-19T07:02:48.252Z,1004.40
2022-08-19T07:03:45.838Z,1004.22
2022-08-19T07:04:45.099Z,1004.28
2022-08-19T07:05:45.895Z,1004.33
2022-08-19T07:06:45.639Z,1004.25
2022-08-19T07:07:47.688Z,1004.44
2022-08-19T07:08:46.283Z,1004.32
2022-08-19T07:09:57.909Z,1004.40
2022-08-19T07:10:47.911Z,1004.38
2022-08-19T07:11:47.202Z,1004.38
2022-08-19T07:12:47.553Z,1004.39
2022-08-19T07:13:47.804Z,1004.36
2022-08-19T07:14:48.052Z,1004.42
2022-08-19T07:15:48.294Z,1004.34
2022-08-19T07:16:48.534Z,1004.36
2022-08-19T07:17:52.393Z,1004.37
2022-08-19T07:18:49.107Z,1004.32
2022-08-19T07:19:49.366Z,1004.26
2022-08-19T07:20:49.597Z,1004.25
2022-08-19T07:21:49.827Z,1004.22
2022-08-19T07:22:50.167Z,1004.23
2022-08-19T07:23:50.418Z,1004.26
2022-08-19T07:24:51.494Z,1004.25
2022-08-19T07:25:53.137Z,1004.34
2022-08-19T07:26:51.655Z,1004.29
2022-08-19T07:27:54.597Z,1004.24
2022-08-19T07:28:52.925Z,1004.29
2022-08-19T07:29:57.159Z,1004.35
2022-08-19T07:30:53.412Z,1004.33
2022-08-19T07:31:52.691Z,1004.32
2022-08-19T07:32:52.961Z,1004.36
2022-08-19T07:33:54.766Z,1004.36
2022-08-19T07:34:53.525Z,1004.33
2022-08-19T07:35:53.742Z,1004.33
2022-08-19T07:36:54.012Z,1004.28
2022-08-19T07:37:54.394Z,1004.35
2022-08-19T07:38:54.475Z,1004.33
2022-08-19T07:39:54.805Z,1004.34
2022-08-19T07:40:55.071Z,1004.38
2022-08-19T07:41:55.313Z,1004.37
2022-08-19T07:42:55.574Z,1004.39
2022-08-19T07:43:55.874Z,1004.38
2022-08-19T07:44:56.165Z,1004.48
2022-08-19T07:45:56.553Z,1004.55
2022-08-19T07:46:56.761Z,1004.55
2022-08-19T07:47:57.032Z,1004.56
2022-08-19T07:48:57.309Z,1004.54
2022-08-19T07:49:57.571Z,1004.58
2022-08-19T07:50:57.817Z,1004.61
2022-08-19T07:51:58.114Z,1004.64
2022-08-19T07:52:58.371Z,1004.56
2022-08-19T07:53:58.652Z,1004.67
2022-08-19T07:54:58.902Z,1004.70
2022-08-19T07:55:59.152Z,1004.74
2022-08-19T07:56:59.409Z,1004.72
2022-08-19T07:57:59.665Z,1004.65
2022-08-19T07:58:59.937Z,1004.63
2022-08-19T08:00:00.297Z,1004.58
2022-08-19T08:01:00.533Z,1004.57
2022-08-19T08:02:00.852Z,1004.50
2022-08-19T08:03:01.194Z,1004.49
2022-08-19T08:04:01.458Z,1004.41
2022-08-19T08:05:01.739Z,1004.40
2022-08-19T08:06:01.997Z,1004.41
2022-08-19T08:07:02.311Z,1004.46
2022-08-19T08:08:02.598Z,1004.49
2022-08-19T08:09:02.916Z,1004.54
2022-08-19T08:10:03.575Z,1004.64
2022-08-19T08:11:03.471Z,1004.70
2022-08-19T08:12:13.320Z,1004.64
2022-08-19T08:13:09.973Z,1004.67
2022-08-19T08:14:05.525Z,1004.75
2022-08-19T08:15:04.751Z,1004.75
2022-08-19T08:16:05.017Z,1004.79
2022-08-19T08:17:11.023Z,1004.74
2022-08-19T08:18:05.645Z,1004.77
2022-08-19T08:19:07.287Z,1004.78
2022-08-19T08:20:07.197Z,1004.73
2022-08-19T08:21:06.386Z,1004.81
2022-08-19T08:22:06.634Z,1004.82
2022-08-19T08:23:06.897Z,1004.88
2022-08-19T08:24:07.168Z,1004.82
2022-08-19T08:25:07.458Z,1004.76
2022-08-19T08:26:07.708Z,1004.74
2022-08-19T08:27:11.290Z,1004.74
2022-08-19T08:28:08.196Z,1004.77
2022-08-19T08:29:12.443Z,1004.82
2022-08-19T08:30:08.749Z,1004.84
2022-08-19T08:31:09.485Z,1004.88
2022-08-19T08:32:14.236Z,1004.94
2022-08-19T08:33:10.705Z,1005.07
2022-08-19T08:34:09.896Z,1005.04
2022-08-19T08:35:10.162Z,1005.04
2022-08-19T08:36:10.461Z,1005.03
2022-08-19T08:37:10.751Z,1005.06
2022-08-19T08:38:11.035Z,1005.07
2022-08-19T08:39:11.290Z,1005.08
2022-08-19T08:40:13.322Z,1005.06
2022-08-19T08:41:12.050Z,1005.02
2022-08-19T08:42:17.660Z,1005.06
2022-08-19T08:43:13.428Z,1004.99
2022-08-19T08:44:17.343Z,1005.02
2022-08-19T08:45:13.874Z,1005.01
2022-08-19T08:46:13.146Z,1004.98
2022-08-19T08:47:13.426Z,1005.02
2022-08-19T08:48:22.450Z,1004.96
2022-08-19T08:49:14.947Z,1005.05
2022-08-19T08:50:14.147Z,1005.02
2022-08-19T08:51:14.388Z,1005.04
2022-08-19T08:52:15.788Z,1005.00
2022-08-19T08:53:15.006Z,1005.00
2022-08-19T08:54:16.219Z,1005.03
2022-08-19T08:55:15.548Z,1004.99
2022-08-19T08:56:17.020Z,1004.97
2022-08-19T08:57:16.054Z,1004.97
2022-08-19T08:58:16.499Z,1004.96
2022-08-19T08:59:16.852Z,1004.93
2022-08-19T09:00:16.851Z,1004.97
2022-08-19T09:01:17.237Z,1004.97
2022-08-19T09:02:17.399Z,1004.97
2022-08-19T09:03:17.710Z,1004.92
2022-08-19T09:04:18.353Z,1004.92
2022-08-19T09:05:18.242Z,1004.95
2022-08-19T09:06:18.635Z,1004.98
2022-08-19T09:07:34.791Z,1004.94
2022-08-19T09:08:20.324Z,1004.87
2022-08-19T09:09:19.388Z,1004.97
2022-08-19T09:10:19.749Z,1005.01
2022-08-19T09:11:42.684Z,1004.94
2022-08-19T09:12:27.056Z,1004.89
2022-08-19T09:13:21.589Z,1004.90
2022-08-19T09:14:47.466Z,1004.82
2022-08-19T09:15:22.098Z,1004.84
2022-08-19T09:16:28.042Z,1004.82
2022-08-19T09:17:22.619Z,1004.84
2022-08-19T09:18:21.972Z,1004.79
2022-08-19T09:19:22.463Z,1004.80
2022-08-19T09:20:22.491Z,1004.76
2022-08-19T09:21:25.411Z,1004.71
2022-08-19T09:22:26.012Z,1004.70
2022-08-19T09:23:26.981Z,1004.73
2022-08-19T09:24:23.663Z,1004.80
2022-08-19T09:25:27.028Z,1004.66
2022-08-19T09:26:24.116Z,1004.70
2022-08-19T09:27:42.069Z,1004.70
2022-08-19T09:28:27.049Z,1004.67
2022-08-19T09:29:24.979Z,1004.63
2022-08-19T09:30:25.226Z,1004.60
2022-08-19T09:31:25.496Z,1004.63
2022-08-19T09:32:26.497Z,1004.67
2022-08-19T09:33:26.028Z,1004.65
2022-08-19T09:34:37.985Z,1004.64
2022-08-19T09:35:28.336Z,1004.52
2022-08-19T09:36:34.576Z,1004.58
2022-08-19T09:37:28.287Z,1004.50
2022-08-19T09:38:27.585Z,1004.56
2022-08-19T09:39:35.932Z,1004.56
2022-08-19T09:40:30.229Z,1004.59
2022-08-19T09:41:28.761Z,1004.50
2022-08-19T09:42:30.485Z,1004.57
2022-08-19T09:43:33.779Z,1004.55
2022-08-19T09:44:30.344Z,1004.51
2022-08-19T09:45:29.644Z,1004.48
2022-08-19T09:46:29.906Z,1004.46
2022-08-19T09:47:30.188Z,1004.57
2022-08-19T09:48:30.439Z,1004.60
2022-08-19T09:49:30.666Z,1004.56
2022-08-19T09:50:30.907Z,1004.52
2022-08-19T09:51:31.165Z,1004.54
2022-08-19T09:52:32.524Z,1004.54
2022-08-19T09:53:31.768Z,1004.65
2022-08-19T09:54:32.070Z,1004.64
2022-08-19T09:55:32.863Z,1004.65
2022-08-19T09:56:32.571Z,1004.61
2022-08-19T09:57:32.909Z,1004.68
2022-08-19T09:58:33.209Z,1004.71
2022-08-19T09:59:33.458Z,1004.76
2022-08-19T10:00:33.739Z,1004.69
2022-08-19T10:01:34.063Z,1004.71
2022-08-19T10:02:34.270Z,1004.76
2022-08-19T10:03:34.485Z,1004.74
2022-08-19T10:04:34.755Z,1004.70
2022-08-19T10:05:35.022Z,1004.66
2022-08-19T10:06:46.283Z,1004.66
2022-08-19T10:07:36.764Z,1004.66
2022-08-19T10:08:35.834Z,1004.67
2022-08-19T10:09:36.194Z,1004.64
2022-08-19T10:10:36.368Z,1004.57
2022-08-19T10:11:39.991Z,1004.60
2022-08-19T10:12:36.895Z,1004.57
2022-08-19T10:13:37.199Z,1004.53
2022-08-19T10:14:37.472Z,1004.52
2022-08-19T10:15:47.780Z,1004.54
2022-08-19T10:16:39.786Z,1004.59
2022-08-19T10:17:38.356Z,1004.59
2022-08-19T10:18:38.640Z,1004.53
2022-08-19T10:19:39.849Z,1004.60
2022-08-19T10:20:39.178Z,1004.56
2022-08-19T10:21:40.563Z,1004.58
2022-08-19T10:22:39.796Z,1004.56
2022-08-19T10:23:40.103Z,1004.54
2022-08-19T10:24:40.379Z,1004.51
2022-08-19T10:25:40.692Z,1004.52
2022-08-19T10:26:40.992Z,1004.52
2022-08-19T10:27:43.351Z,1004.49
2022-08-19T10:28:42.614Z,1004.52
2022-08-19T10:29:46.295Z,1004.55
2022-08-19T10:30:42.146Z,1004.54
2022-08-19T10:32:02.193Z,1004.61
2022-08-19T10:32:46.282Z,1004.61
2022-08-19T10:33:53.871Z,1004.68
2022-08-19T10:34:47.872Z,1004.62
2022-08-19T10:35:56.883Z,1004.60
2022-08-19T10:36:56.386Z,1004.63
2022-08-19T10:37:57.119Z,1004.52
2022-08-19T10:38:51.226Z,1004.56
2022-08-19T10:39:45.937Z,1004.59
2022-08-19T10:40:45.279Z,1004.54
2022-08-19T10:41:45.560Z,1004.50
2022-08-19T10:42:45.845Z,1004.61
2022-08-19T10:43:46.155Z,1004.57
2022-08-19T10:44:46.436Z,1004.56
2022-08-19T10:45:52.442Z,1004.47
2022-08-19T10:46:48.951Z,1004.45
2022-08-19T10:47:47.285Z,1004.42
2022-08-19T10:48:47.599Z,1004.42
2022-08-19T10:49:47.864Z,1004.44
2022-08-19T10:50:48.154Z,1004.47
2022-08-19T10:51:48.725Z,1004.44
2022-08-19T10:52:50.364Z,1004.40
2022-08-19T10:53:49.399Z,1004.41
2022-08-19T10:54:49.397Z,1004.42
2022-08-19T10:55:49.712Z,1004.42
2022-08-19T10:56:49.974Z,1004.39
2022-08-19T10:58:02.325Z,1004.34
2022-08-19T10:58:52.028Z,1004.35
2022-08-19T10:59:50.889Z,1004.38
2022-08-19T11:00:51.544Z,1004.36
2022-08-19T11:01:51.461Z,1004.44
2022-08-19T11:02:51.662Z,1004.41
2022-08-19T11:03:51.964Z,1004.38
2022-08-19T11:04:52.385Z,1004.37
2022-08-19T11:05:52.442Z,1004.45
2022-08-19T11:06:52.764Z,1004.35
2022-08-19T11:07:53.387Z,1004.40
2022-08-19T11:08:53.355Z,1004.36
2022-08-19T11:09:53.635Z,1004.39
2022-08-19T11:10:53.915Z,1004.47
2022-08-19T11:11:54.437Z,1004.45
2022-08-19T11:12:54.546Z,1004.44
2022-08-19T11:13:54.788Z,1004.40
2022-08-19T11:14:59.075Z,1004.41
2022-08-19T11:15:55.402Z,1004.42
2022-08-19T11:16:55.787Z,1004.45
2022-08-19T11:17:56.117Z,1004.47
2022-08-19T11:18:56.173Z,1004.42
2022-08-19T11:19:56.442Z,1004.41
2022-08-19T11:20:56.731Z,1004.42
2022-08-19T11:21:57.683Z,1004.45
2022-08-19T11:22:57.304Z,1004.42
2022-08-19T11:23:57.573Z,1004.40
2022-08-19T11:24:57.825Z,1004.41
2022-08-19T11:25:58.204Z,1004.41
2022-08-19T11:26:58.390Z,1004.34
2022-08-19T11:27:58.654Z,1004.38
2022-08-19T11:28:59.443Z,1004.46
2022-08-19T11:29:59.277Z,1004.51
2022-08-19T11:30:59.454Z,1004.55
2022-08-19T11:31:59.876Z,1004.55
2022-08-19T11:33:00.010Z,1004.51
2022-08-19T11:34:00.278Z,1004.59
2022-08-19T11:35:00.568Z,1004.52
2022-08-19T11:36:00.939Z,1004.55
2022-08-19T11:37:01.250Z,1004.59
2022-08-19T11:38:01.422Z,1004.61
2022-08-19T11:39:02.042Z,1004.60
2022-08-19T11:40:02.316Z,1004.60
2022-08-19T11:41:02.398Z,1004.70
2022-08-19T11:42:02.572Z,1004.67
2022-08-19T11:43:02.923Z,1004.64
2022-08-19T11:44:03.299Z,1004.68
2022-08-19T11:45:03.455Z,1004.65
2022-08-19T11:46:03.739Z,1004.64
2022-08-19T11:47:08.754Z,1004.56
2022-08-19T11:48:05.235Z,1004.52
2022-08-19T11:49:04.778Z,1004.58
2022-08-19T11:50:04.899Z,1004.57
2022-08-19T11:51:05.220Z,1004.58
2022-08-19T11:52:05.530Z,1004.57
2022-08-19T11:53:05.850Z,1004.59
2022-08-19T11:54:06.148Z,1004.57
2022-08-19T11:55:06.439Z,1004.59
2022-08-19T11:56:06.724Z,1004.55
2022-08-19T11:57:07.007Z,1004.58
2022-08-19T11:58:07.269Z,1004.56
2022-08-19T11:59:11.604Z,1004.62
2022-08-19T12:00:08.947Z,1004.61
2022-08-19T12:01:08.149Z,1004.61
2022-08-19T12:02:08.384Z,1004.63
2022-08-19T12:03:08.637Z,1004.64
2022-08-19T12:04:09.799Z,1004.69
2022-08-19T12:05:12.551Z,1004.69
2022-08-19T12:06:09.563Z,1004.65
2022-08-19T12:07:09.815Z,1004.67
2022-08-19T12:08:10.089Z,1004.71
2022-08-19T12:09:10.377Z,1004.68